VIAG/AGR METAR and TAF weather

Enter ICAO airport designator
Station Type Date Time Source
VIAG METAR 2020/07/13 08:30 UTC NOAA

VIAG 130830Z 30008KT 6000 SCT025 BKN250 38/21 Q0998 NOSIG


Station Type Date Time Source
VIAG Decoded METAR 2020/07/13 08:30 UTC NOAA

Agra, India (VIAG) 27-09N 077-58E 169M
Jul 13, 2020 - 04:30 AM EDT / 2020.07.13 0830 UTC
Wind: from the WNW (300 degrees) at 9 MPH (8 KT):0
Visibility: 3 mile(s):0
Sky conditions: mostly cloudy
Temperature: 100 F (38 C)
Heat index: 106.9 F (41.6 C):1
Dew Point: 69 F (21 C)
Relative Humidity: 37%
Pressure (altimeter): 29.47 in. Hg (0998 hPa)
ob: VIAG 130830Z 30008KT 6000 SCT025 BKN250 38/21 Q0998 NOSIG
cycle: 8

Station Type Date Time Source
VIAG TAF 2020/07/15 06:30 UTC NOAA

TAF VIAG 150330Z 1506/1518 09008KT 6000 SCT030 SCT200
TEMPO 1510/1514 -TSRA SCT015 FEW030CB BKN080

Example: see airport list